Time;durP1;ratioP1;P1;durP2;ratioP2;P2;SDS_P1;SDS_P2;PMS_P1;PMS_P2;Temp;Humidity;BMP_temperature;BMP_pressure;BME280_temperature;BME280_humidity;BME280_pressure;Samples;Min_cycle;Max_cycle;Signal;HPM_P1;HPM_P2
2022/08/23 00:01:25;;;;;;;2.60;2.40;;;23.70;53.50;;;;;;5052366;28;20220;-77
2022/08/23 00:03:52;;;;;;;2.67;2.47;;;23.70;53.50;;;;;;5039765;28;20620;-77
2022/08/23 00:06:22;;;;;;;2.58;2.38;;;23.70;53.60;;;;;;5056368;28;20203;-75
2022/08/23 00:08:49;;;;;;;2.40;2.20;;;23.70;53.60;;;;;;5056811;28;20264;-76
2022/08/23 00:11:25;;;;;;;2.67;2.47;;;23.70;53.60;;;;;;5056296;28;20225;-76
2022/08/23 00:13:52;;;;;;;2.80;2.50;;;23.70;53.70;;;;;;5056505;28;20250;-76
2022/08/23 00:16:19;;;;;;;2.58;2.38;;;23.60;53.60;;;;;;5056418;28;20548;-76
2022/08/23 00:18:46;;;;;;;2.80;2.40;;;23.60;53.60;;;;;;5040060;28;20195;-76
2022/08/23 00:21:13;;;;;;;3.22;2.42;;;23.60;53.70;;;;;;5056231;28;20242;-76
2022/08/23 00:23:41;;;;;;;2.50;2.30;;;23.60;53.70;;;;;;5056131;28;20250;-76
2022/08/23 00:26:08;;;;;;;2.50;2.30;;;23.60;53.70;;;;;;5056345;28;20199;-76
2022/08/23 00:28:35;;;;;;;2.78;2.58;;;23.60;53.80;;;;;;5055864;28;20241;-76
2022/08/23 00:31:02;;;;;;;2.78;2.20;;;23.60;53.80;;;;;;5039262;28;20261;-76
2022/08/23 00:33:29;;;;;;;2.63;2.42;;;23.60;53.80;;;;;;5056151;28;20202;-76
2022/08/23 00:35:56;;;;;;;2.78;2.58;;;23.60;53.80;;;;;;5039191;28;20661;-77
2022/08/23 00:38:24;;;;;;;2.80;2.10;;;23.50;53.80;;;;;;5057447;28;20191;-77
2022/08/23 00:40:53;;;;;;;2.42;2.22;;;23.50;53.80;;;;;;5055686;28;20215;-76
2022/08/23 00:49:12;;;;;;;2.55;2.35;;;23.50;53.90;;;;;;5055565;28;20195;-76
2022/08/23 00:51:43;;;;;;;2.72;2.40;;;23.50;54.00;;;;;;5055509;28;20226;-77
2022/08/23 00:54:10;;;;;;;2.80;2.50;;;23.50;53.90;;;;;;5038952;28;20653;-76
2022/08/23 00:56:39;;;;;;;2.40;2.20;;;23.50;54.00;;;;;;5055406;28;20237;-76
2022/08/23 00:59:06;;;;;;;2.25;2.10;;;23.50;54.00;;;;;;5055992;28;20286;-77
2022/08/23 01:01:33;;;;;;;2.60;2.40;;;23.50;54.00;;;;;;5055369;28;20701;-76
2022/08/23 01:04:00;;;;;;;2.63;2.28;;;23.50;54.00;;;;;;5038654;28;20215;-76
2022/08/23 01:06:29;;;;;;;2.38;2.20;;;23.50;54.00;;;;;;5055017;28;20203;-77
2022/08/23 01:09:03;;;;;;;2.30;2.10;;;23.50;54.10;;;;;;5055221;28;20282;-76
2022/08/23 01:11:33;;;;;;;2.30;2.10;;;23.50;54.10;;;;;;5055592;28;20223;-77
2022/08/23 01:14:03;;;;;;;2.47;2.28;;;23.40;54.00;;;;;;5054509;28;20215;-77
2022/08/23 01:16:33;;;;;;;2.30;2.10;;;23.40;54.00;;;;;;5038411;28;20195;-76
2022/08/23 01:19:00;;;;;;;2.20;2.10;;;23.40;54.00;;;;;;5055315;28;20203;-76
2022/08/23 01:21:30;;;;;;;2.40;2.20;;;23.40;54.10;;;;;;5054816;28;20215;-77
2022/08/23 01:23:59;;;;;;;2.42;2.22;;;23.40;54.10;;;;;;5054743;28;20298;-77
2022/08/23 01:26:27;;;;;;;2.60;2.40;;;23.40;54.10;;;;;;5054720;28;20298;-76
2022/08/23 01:28:55;;;;;;;2.15;1.95;;;23.40;54.20;;;;;;5038673;28;20646;-76
2022/08/23 01:31:22;;;;;;;2.40;2.20;;;23.40;54.20;;;;;;5055254;28;20739;-77
2022/08/23 01:33:51;;;;;;;2.33;2.13;;;23.40;54.20;;;;;;5054626;28;20191;-77
2022/08/23 01:36:18;;;;;;;2.33;2.10;;;23.30;54.20;;;;;;5056039;28;20586;-76
2022/08/23 01:38:49;;;;;;;2.55;2.33;;;23.30;54.70;;;;;;5040353;28;20199;-76
2022/08/23 01:41:18;;;;;;;2.30;2.10;;;23.30;54.20;;;;;;5054784;28;20216;-76
2022/08/23 01:43:45;;;;;;;2.25;2.13;;;23.30;54.20;;;;;;5055345;28;20222;-76
2022/08/23 01:46:16;;;;;;;2.47;2.28;;;23.30;54.20;;;;;;5054485;28;20202;-77
2022/08/23 01:48:45;;;;;;;2.42;2.22;;;23.30;54.30;;;;;;5054498;28;20188;-76
2022/08/23 01:51:12;;;;;;;3.47;2.20;;;23.30;54.20;;;;;;5021415;28;20211;-76
2022/08/23 01:53:39;;;;;;;2.35;2.15;;;23.30;54.30;;;;;;5037859;28;20695;-77
2022/08/23 01:56:07;;;;;;;2.03;1.90;;;23.30;54.20;;;;;;5054437;28;20192;-76
2022/08/23 01:58:38;;;;;;;2.63;2.42;;;23.30;54.30;;;;;;5054181;28;20203;-77
2022/08/23 02:01:05;;;;;;;2.20;2.10;;;23.20;54.20;;;;;;5054034;28;20242;-76
2022/08/23 02:03:33;;;;;;;2.50;2.30;;;23.30;54.30;;;;;;5021257;28;20195;-77
2022/08/23 02:06:00;;;;;;;2.30;2.10;;;23.20;54.20;;;;;;5055442;28;20207;-76
2022/08/23 02:11:14;;;;;;;2.30;2.10;;;23.30;54.30;;;;;;5054038;28;20211;-76
2022/08/23 02:13:43;;;;;;;2.20;2.00;;;23.20;54.30;;;;;;5055087;28;20618;-76
2022/08/23 02:16:11;;;;;;;2.05;1.95;;;23.20;54.30;;;;;;5053710;28;20195;-77
2022/08/23 02:18:40;;;;;;;2.10;1.90;;;23.20;54.40;;;;;;5053809;28;20227;-76
2022/08/23 02:21:07;;;;;;;2.05;1.85;;;23.10;54.40;;;;;;5053606;28;20215;-76
2022/08/23 02:23:34;;;;;;;2.22;2.05;;;23.10;54.40;;;;;;5037736;28;20191;-76
2022/08/23 02:26:01;;;;;;;2.42;2.22;;;23.10;54.40;;;;;;5054236;28;20211;-77
2022/08/23 02:28:28;;;;;;;2.08;1.92;;;23.10;54.40;;;;;;5053836;28;20202;-76
2022/08/23 02:30:57;;;;;;;2.20;2.10;;;23.10;55.10;;;;;;5054263;28;20269;-76
2022/08/23 02:33:24;;;;;;;2.05;1.88;;;23.10;54.50;;;;;;5037053;28;20199;-76
2022/08/23 02:35:51;;;;;;;2.42;2.22;;;23.10;54.50;;;;;;5053630;28;20199;-76
2022/08/23 02:38:19;;;;;;;2.40;2.20;;;23.10;54.50;;;;;;5053600;28;20199;-76
2022/08/23 02:40:47;;;;;;;2.00;1.90;;;23.10;54.60;;;;;;5053427;28;20310;-76
2022/08/23 02:43:14;;;;;;;2.17;1.95;;;23.10;55.10;;;;;;5036629;28;20716;-76
2022/08/23 02:45:41;;;;;;;2.28;2.08;;;23.10;54.60;;;;;;5036616;28;20215;-76
2022/08/23 02:48:09;;;;;;;2.05;1.95;;;23.10;54.60;;;;;;5054360;28;20203;-76
2022/08/23 02:50:51;;;;;;;2.35;2.03;;;23.10;54.60;;;;;;5053997;28;20228;-76
2022/08/23 02:53:19;;;;;;;2.03;1.92;;;23.00;54.60;;;;;;5036880;28;20226;-76
2022/08/23 02:55:46;;;;;;;2.05;1.95;;;23.00;54.50;;;;;;5036858;28;20191;-77
2022/08/23 02:58:13;;;;;;;2.08;1.90;;;23.00;54.60;;;;;;5053128;28;20207;-77
2022/08/23 03:00:40;;;;;;;2.10;1.90;;;23.00;54.60;;;;;;5053113;28;20704;-76
2022/08/23 03:03:08;;;;;;;2.28;2.08;;;23.00;54.60;;;;;;5053003;28;20195;-77
2022/08/23 03:05:35;;;;;;;2.00;1.85;;;23.00;54.70;;;;;;5036852;28;20222;-77
2022/08/23 03:08:03;;;;;;;1.98;1.88;;;23.00;54.60;;;;;;5036368;28;20199;-76
2022/08/23 03:10:36;;;;;;;2.20;2.00;;;23.00;54.60;;;;;;5052856;28;20215;-76
2022/08/23 03:13:04;;;;;;;2.35;2.10;;;23.00;54.60;;;;;;5052738;28;20289;-76
2022/08/23 03:15:32;;;;;;;2.22;2.03;;;23.00;54.60;;;;;;5052910;28;20278;-77
2022/08/23 03:17:59;;;;;;;2.50;2.30;;;23.00;54.60;;;;;;5052715;28;20218;-77
2022/08/23 03:20:27;;;;;;;2.50;2.30;;;23.00;54.70;;;;;;5036328;28;20216;-77
2022/08/23 03:22:54;;;;;;;2.40;2.20;;;23.00;54.60;;;;;;5052791;28;20199;-76
2022/08/23 03:25:24;;;;;;;2.10;2.00;;;23.00;54.60;;;;;;5052714;28;20214;-77
2022/08/23 03:28:13;;;;;;;2.08;1.98;;;23.00;54.40;;;;;;5052713;28;20192;-76
2022/08/23 03:30:44;;;;;;;2.13;1.90;;;23.10;54.40;;;;;;5052567;28;20709;-76
2022/08/23 03:33:11;;;;;;;2.33;2.17;;;23.20;54.20;;;;;;5052678;28;20283;-76
2022/08/23 03:35:42;;;;;;;2.90;2.22;;;23.20;54.20;;;;;;5052542;28;20210;-76
2022/08/23 03:38:11;;;;;;;2.00;1.90;;;23.20;54.10;;;;;;5052372;28;20188;-77
2022/08/23 03:40:39;;;;;;;2.10;1.90;;;23.20;54.00;;;;;;5052431;28;20247;-76
2022/08/23 03:43:06;;;;;;;1.92;1.83;;;23.30;54.00;;;;;;5019857;28;20280;-77
2022/08/23 03:45:33;;;;;;;2.10;1.90;;;23.30;53.90;;;;;;5052803;28;20238;-76
2022/08/23 03:48:00;;;;;;;2.50;2.13;;;23.30;53.80;;;;;;5054111;28;20222;-77
2022/08/23 03:50:27;;;;;;;2.38;2.13;;;23.30;53.80;;;;;;5053841;28;20715;-76
2022/08/23 03:52:56;;;;;;;2.70;2.10;;;23.40;53.80;;;;;;5056881;28;20681;-76
2022/08/23 03:55:23;;;;;;;2.03;1.90;;;23.30;53.70;;;;;;5038257;28;20211;-76
2022/08/23 03:57:51;;;;;;;2.35;2.15;;;23.40;53.70;;;;;;5064644;28;20294;-76
2022/08/23 04:00:20;;;;;;;2.28;2.08;;;23.40;53.70;;;;;;5032831;28;20225;-76
2022/08/23 04:02:48;;;;;;;2.35;2.15;;;23.30;53.60;;;;;;5063550;28;20215;-77
2022/08/23 04:05:15;;;;;;;2.60;2.22;;;23.40;53.70;;;;;;5063977;28;20305;-77
2022/08/23 04:08:09;;;;;;;2.30;2.10;;;23.30;53.60;;;;;;5062021;28;20689;-76
2022/08/23 04:10:38;;;;;;;2.10;1.98;;;23.30;53.60;;;;;;5063285;28;20268;-76
2022/08/23 04:13:07;;;;;;;2.20;1.90;;;23.30;53.60;;;;;;5065237;28;20229;-76
2022/08/23 04:15:34;;;;;;;1.95;1.85;;;23.30;53.60;;;;;;5031914;28;20202;-77
2022/08/23 04:18:02;;;;;;;2.45;2.00;;;23.30;53.60;;;;;;5047899;28;20259;-76
2022/08/23 04:20:29;;;;;;;2.10;1.90;;;23.30;53.60;;;;;;5029677;28;20215;-76
2022/08/23 04:23:01;;;;;;;2.22;2.00;;;23.30;53.60;;;;;;5060292;28;20207;-76
2022/08/23 04:25:33;;;;;;;2.10;1.90;;;23.30;53.60;;;;;;5067571;28;20216;-77
2022/08/23 04:28:00;;;;;;;2.05;1.90;;;23.30;53.60;;;;;;5067320;28;20238;-77
2022/08/23 04:30:28;;;;;;;1.98;1.80;;;23.30;53.70;;;;;;5065665;28;20215;-77
2022/08/23 04:32:56;;;;;;;2.05;1.90;;;23.30;53.70;;;;;;5035068;28;20290;-76
2022/08/23 04:35:24;;;;;;;2.35;2.00;;;23.30;53.70;;;;;;5052173;28;20719;-76
2022/08/23 04:37:51;;;;;;;2.50;2.17;;;23.20;53.60;;;;;;5062351;28;20196;-76
2022/08/23 04:43:07;;;;;;;3.30;2.13;;;23.20;53.70;;;;;;5047185;28;20210;-76
2022/08/23 04:45:37;;;;;;;2.25;2.05;;;23.20;53.80;;;;;;5042903;28;20215;-76
2022/08/23 04:48:05;;;;;;;1.95;1.83;;;23.20;53.80;;;;;;5061358;28;20223;-77
2022/08/23 04:50:33;;;;;;;2.30;2.10;;;23.20;53.80;;;;;;5058795;28;20211;-76
2022/08/23 04:53:16;;;;;;;2.20;2.00;;;23.10;53.80;;;;;;5056987;28;20203;-76
2022/08/23 04:55:52;;;;;;;2.20;2.00;;;23.10;53.80;;;;;;5056861;28;20194;-76
2022/08/23 04:58:21;;;;;;;2.30;2.10;;;23.10;53.90;;;;;;5056171;28;20203;-76
2022/08/23 05:00:49;;;;;;;2.30;2.10;;;23.10;53.90;;;;;;5039208;28;20294;-77
2022/08/23 05:03:22;;;;;;;2.00;1.90;;;23.10;53.80;;;;;;5039204;28;20282;-76
2022/08/23 05:05:49;;;;;;;2.03;1.90;;;23.10;53.80;;;;;;5056127;28;20219;-76
2022/08/23 05:08:17;;;;;;;2.30;2.10;;;23.10;53.80;;;;;;5056474;28;20213;-75
2022/08/23 05:10:46;;;;;;;2.58;2.20;;;23.10;52.60;;;;;;5056099;28;20215;-75
2022/08/23 05:13:13;;;;;;;2.55;2.13;;;23.10;52.00;;;;;;5039310;28;20643;-75
2022/08/23 05:15:43;;;;;;;2.25;2.15;;;23.10;51.20;;;;;;5056236;28;20221;-77
2022/08/23 05:18:11;;;;;;;2.63;2.30;;;23.10;51.00;;;;;;5056549;28;20195;-75
2022/08/23 05:20:39;;;;;;;3.58;2.42;;;23.10;50.60;;;;;;5039205;28;20307;-77
2022/08/23 05:23:06;;;;;;;2.58;2.38;;;23.10;50.30;;;;;;5055273;28;20200;-76
2022/08/23 05:28:34;;;;;;;3.08;2.38;;;23.10;50.20;;;;;;5054955;28;20187;-77
2022/08/23 05:31:05;;;;;;;3.55;2.38;;;23.10;50.20;;;;;;5022203;28;20289;-75
2022/08/23 05:33:41;;;;;;;3.17;2.50;;;23.10;50.20;;;;;;5038940;28;20204;-77
2022/08/23 05:36:08;;;;;;;3.42;2.58;;;23.10;50.60;;;;;;5039595;28;20291;-76
2022/08/23 05:38:37;;;;;;;3.72;2.47;;;23.10;50.00;;;;;;5055192;28;20230;-77
2022/08/23 05:41:04;;;;;;;3.35;2.70;;;23.10;50.00;;;;;;5054666;28;20314;-76
2022/08/23 05:43:31;;;;;;;2.97;2.30;;;23.20;50.10;;;;;;5055085;28;20206;-76
2022/08/23 05:46:01;;;;;;;4.68;2.85;;;23.20;50.10;;;;;;5038537;28;20755;-76
2022/08/23 05:48:29;;;;;;;3.55;2.90;;;23.30;50.00;;;;;;5037900;28;20195;-75
2022/08/23 05:51:08;;;;;;;2.70;2.50;;;23.40;49.70;;;;;;5055035;28;20678;-77
2022/08/23 05:53:35;;;;;;;3.10;2.80;;;23.70;50.10;;;;;;5055355;28;20234;-76
2022/08/23 05:56:09;;;;;;;4.18;2.55;;;23.80;49.60;;;;;;5059001;28;20191;-77
2022/08/23 05:58:36;;;;;;;3.90;2.50;;;24.10;49.20;;;;;;5039923;28;20207;-78
2022/08/23 06:01:03;;;;;;;2.88;2.58;;;24.30;49.00;;;;;;5057305;28;20223;-77
2022/08/23 06:03:32;;;;;;;3.92;2.50;;;24.60;48.50;;;;;;5039984;28;20207;-76
2022/08/23 06:05:59;;;;;;;4.15;2.35;;;24.80;48.20;;;;;;5054726;28;20559;-77
2022/08/23 06:08:27;;;;;;;3.85;2.60;;;24.90;47.90;;;;;;5056260;28;20577;-77
2022/08/23 06:11:00;;;;;;;2.80;2.20;;;25.10;47.40;;;;;;5056178;28;20712;-76
2022/08/23 06:13:28;;;;;;;3.80;2.33;;;25.30;47.10;;;;;;5056999;28;20183;-77
2022/08/23 06:15:56;;;;;;;2.50;2.30;;;25.40;47.00;;;;;;5022595;28;20550;-77
2022/08/23 06:18:23;;;;;;;2.60;2.40;;;25.60;46.30;;;;;;5039416;28;20615;-77
2022/08/23 06:21:02;;;;;;;2.72;2.50;;;25.80;46.10;;;;;;5055433;28;20227;-76
2022/08/23 06:23:40;;;;;;;2.97;2.50;;;25.90;45.80;;;;;;5055528;28;20196;-76
2022/08/23 06:26:10;;;;;;;3.50;2.50;;;26.00;45.50;;;;;;5038104;28;20215;-75
2022/08/23 06:28:37;;;;;;;3.00;2.42;;;26.20;45.30;;;;;;5056352;28;20191;-77
2022/08/23 06:31:04;;;;;;;2.88;2.60;;;26.20;45.30;;;;;;5055461;28;20207;-75
2022/08/23 06:33:34;;;;;;;3.47;2.35;;;26.30;45.20;;;;;;5054999;28;20188;-76
2022/08/23 06:36:25;;;;;;;2.92;2.17;;;26.50;45.00;;;;;;5054185;28;20233;-77
2022/08/23 06:39:05;;;;;;;2.65;2.42;;;26.60;44.70;;;;;;5056847;28;20201;-78
2022/08/23 06:41:59;;;;;;;3.67;3.03;;;26.70;44.60;;;;;;5055780;28;20296;-76
2022/08/23 06:44:31;;;;;;;3.97;2.67;;;26.90;44.40;;;;;;5055208;28;20245;-77
2022/08/23 06:47:17;;;;;;;3.60;2.70;;;27.00;44.10;;;;;;5055138;28;20289;-76
2022/08/23 06:49:44;;;;;;;6.40;2.40;;;27.00;43.90;;;;;;5055169;28;20203;-77
2022/08/23 06:52:13;;;;;;;2.53;2.33;;;27.10;43.80;;;;;;5054626;28;20195;-76
2022/08/23 06:54:58;;;;;;;2.97;2.58;;;27.20;43.70;;;;;;5057037;28;20194;-76
2022/08/23 06:57:34;;;;;;;2.30;2.10;;;27.30;43.40;;;;;;5055195;28;20198;-77
2022/08/23 07:00:36;;;;;;;3.92;2.38;;;27.30;43.90;;;;;;5047075;28;20214;-75
2022/08/23 07:03:12;;;;;;;3.00;2.30;;;27.50;43.20;;;;;;5054806;28;20191;-77
2022/08/23 07:05:58;;;;;;;3.28;2.40;;;27.60;43.10;;;;;;5041208;28;20213;-77
2022/08/23 07:08:29;;;;;;;3.45;2.50;;;27.60;42.90;;;;;;5022245;28;20206;-77
2022/08/23 07:10:56;;;;;;;3.20;2.30;;;27.60;42.80;;;;;;5037792;28;20618;-75
2022/08/23 07:13:23;;;;;;;2.60;2.17;;;27.70;42.70;;;;;;5054764;28;20195;-76
2022/08/23 07:15:50;;;;;;;3.05;2.60;;;27.80;42.60;;;;;;5037897;28;20727;-77
2022/08/23 07:18:20;;;;;;;2.50;2.30;;;27.80;42.40;;;;;;5055033;28;20557;-77
2022/08/23 07:20:48;;;;;;;3.33;2.13;;;27.90;42.40;;;;;;5038866;28;20305;-77
2022/08/23 07:23:16;;;;;;;3.88;2.25;;;27.90;42.40;;;;;;5037790;28;20248;-77
2022/08/23 07:25:45;;;;;;;2.40;2.20;;;28.00;42.20;;;;;;5054090;28;20214;-77
2022/08/23 07:28:15;;;;;;;2.60;2.33;;;28.00;42.20;;;;;;5039424;28;20191;-77
2022/08/23 07:30:43;;;;;;;2.30;2.10;;;28.10;42.00;;;;;;5021415;28;20214;-77
2022/08/23 07:33:10;;;;;;;3.40;2.80;;;28.10;41.90;;;;;;5038422;28;20268;-75
2022/08/23 07:35:57;;;;;;;2.55;2.35;;;28.20;41.80;;;;;;5054912;28;20197;-76
2022/08/23 07:38:24;;;;;;;3.05;2.50;;;28.20;41.70;;;;;;5021063;28;20221;-75
2022/08/23 07:40:55;;;;;;;2.42;2.22;;;28.30;41.60;;;;;;5053659;28;20297;-76
2022/08/23 07:43:22;;;;;;;2.50;2.30;;;28.30;41.50;;;;;;5037250;28;20199;-76
2022/08/23 07:45:50;;;;;;;2.42;2.13;;;28.30;41.40;;;;;;5054057;28;20595;-75
2022/08/23 07:48:17;;;;;;;2.45;2.15;;;28.40;41.30;;;;;;5037479;28;20608;-76
2022/08/23 07:51:02;;;;;;;3.80;2.25;;;28.50;41.30;;;;;;5036602;28;20256;-77
2022/08/23 07:53:29;;;;;;;2.30;2.10;;;28.50;41.20;;;;;;5035986;28;20248;-77
2022/08/23 07:55:58;;;;;;;2.70;2.40;;;28.50;41.10;;;;;;5035990;28;20191;-76
2022/08/23 07:58:43;;;;;;;2.72;2.40;;;28.60;41.10;;;;;;5054178;28;20569;-77
2022/08/23 08:01:29;;;;;;;2.28;2.05;;;28.60;41.00;;;;;;5053455;28;20289;-78
2022/08/23 08:03:57;;;;;;;2.67;2.30;;;28.60;41.00;;;;;;5020530;28;20195;-76
2022/08/23 08:06:30;;;;;;;2.40;2.20;;;28.70;40.90;;;;;;5035923;28;20214;-76
2022/08/23 08:08:58;;;;;;;2.28;2.08;;;28.70;40.90;;;;;;5019549;28;20218;-77
2022/08/23 08:11:30;;;;;;;2.60;2.22;;;28.70;40.80;;;;;;5052186;28;20268;-77
2022/08/23 08:13:59;;;;;;;2.10;1.95;;;28.80;40.80;;;;;;5053255;28;20266;-76
2022/08/23 08:16:29;;;;;;;2.00;1.90;;;28.80;40.80;;;;;;5020548;28;20281;-75
2022/08/23 08:18:59;;;;;;;2.65;2.30;;;28.80;40.70;;;;;;5052986;28;20197;-75
2022/08/23 08:21:45;;;;;;;2.38;2.00;;;28.80;40.70;;;;;;5040822;28;20213;-76
2022/08/23 08:24:25;;;;;;;2.42;2.22;;;28.80;40.60;;;;;;5056639;28;20244;-78
2022/08/23 08:26:59;;;;;;;2.42;2.20;;;28.90;40.70;;;;;;5059004;28;20280;-76
2022/08/23 08:29:26;;;;;;;2.47;2.28;;;28.90;41.30;;;;;;5058483;28;20191;-79
2022/08/23 08:31:53;;;;;;;2.58;2.10;;;28.90;40.60;;;;;;5058105;28;20226;-76
2022/08/23 08:34:20;;;;;;;2.00;1.90;;;28.90;40.60;;;;;;5058294;28;20662;-78
2022/08/23 08:36:48;;;;;;;2.20;2.00;;;29.00;40.60;;;;;;5041383;28;20240;-76
2022/08/23 08:39:21;;;;;;;1.95;1.85;;;29.00;40.60;;;;;;5058736;28;20198;-77
2022/08/23 08:42:00;;;;;;;2.30;2.10;;;29.00;40.40;;;;;;5043059;28;20219;-78
2022/08/23 08:44:35;;;;;;;1.95;1.85;;;29.00;40.40;;;;;;5058494;28;20214;-78
2022/08/23 08:47:06;;;;;;;2.17;1.98;;;29.00;40.50;;;;;;5058343;28;20634;-76
2022/08/23 08:49:35;;;;;;;2.30;1.98;;;29.10;40.50;;;;;;5058227;28;20199;-77
2022/08/23 08:52:06;;;;;;;2.08;1.88;;;29.10;40.50;;;;;;5041713;28;20217;-78
2022/08/23 08:54:33;;;;;;;2.15;1.95;;;29.10;40.40;;;;;;5058600;28;20198;-77
2022/08/23 08:57:03;;;;;;;2.00;1.90;;;29.10;40.30;;;;;;5058053;28;20215;-76
2022/08/23 08:59:42;;;;;;;1.98;1.80;;;29.10;40.20;;;;;;5041145;28;20215;-79
2022/08/23 09:02:09;;;;;;;2.08;1.88;;;29.10;40.20;;;;;;5041216;28;20210;-77
2022/08/23 09:04:37;;;;;;;2.90;2.10;;;29.20;40.20;;;;;;5058069;28;20198;-78
2022/08/23 09:07:10;;;;;;;2.40;2.20;;;29.20;40.10;;;;;;5041948;28;20218;-78
2022/08/23 09:10:29;;;;;;;1.90;1.80;;;29.20;40.10;;;;;;5057707;28;20661;-77
2022/08/23 09:13:19;;;;;;;2.03;1.70;;;29.20;40.10;;;;;;5009493;28;20302;-76
2022/08/23 09:15:52;;;;;;;2.20;2.10;;;29.20;40.10;;;;;;5055919;28;20202;-78
2022/08/23 09:18:22;;;;;;;2.28;2.08;;;29.30;40.10;;;;;;5039310;28;20676;-78
2022/08/23 09:20:51;;;;;;;2.17;2.00;;;29.30;40.10;;;;;;5055860;28;20218;-78
2022/08/23 09:23:20;;;;;;;1.90;1.80;;;29.20;40.00;;;;;;5039976;28;20202;-78
2022/08/23 09:25:52;;;;;;;2.20;2.00;;;29.20;40.00;;;;;;5057629;28;20195;-76
2022/08/23 09:28:20;;;;;;;4.40;1.98;;;29.30;40.10;;;;;;5056487;28;20726;-76
2022/08/23 09:30:51;;;;;;;1.63;1.52;;;29.30;40.00;;;;;;5056604;28;20245;-77
2022/08/23 09:33:19;;;;;;;2.00;1.90;;;29.30;40.10;;;;;;5040958;28;20687;-76
2022/08/23 09:36:07;;;;;;;1.90;1.80;;;29.30;40.10;;;;;;5054677;28;20233;-79
2022/08/23 09:38:36;;;;;;;1.80;1.70;;;29.30;40.00;;;;;;5056425;28;20183;-78
2022/08/23 09:41:19;;;;;;;1.95;1.80;;;29.30;40.10;;;;;;5039716;28;20218;-77
2022/08/23 09:43:51;;;;;;;2.00;1.90;;;29.30;40.10;;;;;;5055909;28;20195;-77
2022/08/23 09:46:30;;;;;;;2.40;2.20;;;29.30;40.10;;;;;;5055845;28;20226;-77
2022/08/23 09:48:59;;;;;;;1.80;1.70;;;29.20;40.10;;;;;;5055555;28;20191;-78
2022/08/23 09:51:35;;;;;;;1.90;1.80;;;29.20;40.10;;;;;;5055575;28;20659;-76
2022/08/23 09:54:06;;;;;;;1.80;1.70;;;29.20;40.20;;;;;;5056772;28;20190;-77
2022/08/23 09:56:36;;;;;;;1.80;1.70;;;29.20;40.20;;;;;;5055639;28;20668;-78
2022/08/23 09:59:19;;;;;;;1.85;1.70;;;29.10;40.30;;;;;;5038225;28;20206;-77
2022/08/23 10:01:47;;;;;;;1.70;1.60;;;29.20;40.40;;;;;;5054784;28;20594;-77
2022/08/23 10:04:15;;;;;;;1.65;1.55;;;29.10;40.40;;;;;;5038156;28;20669;-76
2022/08/23 10:06:44;;;;;;;1.80;1.70;;;29.10;40.50;;;;;;5054465;28;20264;-78
2022/08/23 10:09:23;;;;;;;2.05;1.85;;;29.10;40.50;;;;;;5054675;28;20661;-77
2022/08/23 10:11:50;;;;;;;1.55;1.45;;;29.00;40.60;;;;;;5054789;28;20218;-76
2022/08/23 10:14:20;;;;;;;1.33;1.30;;;29.00;40.70;;;;;;5055096;28;20249;-77
2022/08/23 10:16:55;;;;;;;1.85;1.75;;;29.00;40.80;;;;;;5038169;28;20191;-76
2022/08/23 10:19:25;;;;;;;1.77;1.67;;;29.00;40.80;;;;;;5055592;28;20564;-76
2022/08/23 10:21:57;;;;;;;1.80;1.70;;;28.90;40.80;;;;;;5058069;28;20218;-76
2022/08/23 10:24:30;;;;;;;1.70;1.60;;;28.90;40.90;;;;;;5039174;28;20199;-77
2022/08/23 10:29:53;;;;;;;1.95;1.70;;;28.80;41.10;;;;;;5054835;28;20191;-77
2022/08/23 10:32:22;;;;;;;1.98;1.88;;;28.80;41.20;;;;;;5039201;28;20186;-79
2022/08/23 10:35:01;;;;;;;2.05;1.88;;;28.70;41.30;;;;;;5055764;28;20198;-77
2022/08/23 10:37:46;;;;;;;1.98;1.80;;;28.70;41.40;;;;;;5056417;28;20564;-77
2022/08/23 10:40:16;;;;;;;1.70;1.60;;;28.60;41.50;;;;;;5037932;28;20219;-76
2022/08/23 10:42:47;;;;;;;1.67;1.58;;;28.60;41.60;;;;;;5053902;28;20563;-78
2022/08/23 10:45:21;;;;;;;1.90;1.80;;;28.50;42.30;;;;;;5020914;28;20221;-76
2022/08/23 10:47:58;;;;;;;1.83;1.73;;;28.50;41.80;;;;;;5020349;28;20697;-76
2022/08/23 10:50:25;;;;;;;2.53;1.83;;;28.40;41.90;;;;;;5036604;28;20215;-74
2022/08/23 10:52:53;;;;;;;2.03;1.90;;;28.40;42.00;;;;;;5054488;28;20262;-76
2022/08/23 10:55:34;;;;;;;2.00;1.80;;;28.30;42.10;;;;;;5053885;28;20199;-75
2022/08/23 10:58:04;;;;;;;1.98;1.80;;;28.30;42.30;;;;;;5037323;28;20552;-75
2022/08/23 11:00:33;;;;;;;2.13;1.92;;;28.30;42.40;;;;;;5036658;28;20211;-76
2022/08/23 11:03:04;;;;;;;1.90;1.80;;;28.20;42.40;;;;;;5053025;28;20190;-76
2022/08/23 11:05:36;;;;;;;1.70;1.60;;;28.20;42.60;;;;;;5053694;28;20194;-74
2022/08/23 11:08:12;;;;;;;1.70;1.60;;;28.10;42.50;;;;;;5053761;28;20214;-76
2022/08/23 11:10:46;;;;;;;1.65;1.55;;;28.10;42.80;;;;;;5053025;28;20211;-76
2022/08/23 11:13:21;;;;;;;1.75;1.65;;;28.10;42.90;;;;;;5052818;28;20229;-76
2022/08/23 11:15:58;;;;;;;1.67;1.58;;;28.10;43.00;;;;;;5053144;28;20569;-74
2022/08/23 11:18:46;;;;;;;1.70;1.60;;;28.00;43.00;;;;;;5020336;28;20188;-76
2022/08/23 11:21:43;;;;;;;1.50;1.40;;;28.00;43.10;;;;;;5053147;28;20215;-76
2022/08/23 11:24:35;;;;;;;1.77;1.67;;;27.90;43.20;;;;;;5053439;28;20194;-76
2022/08/23 11:27:05;;;;;;;1.80;1.70;;;27.90;43.30;;;;;;5035398;28;20218;-76
2022/08/23 11:29:38;;;;;;;1.65;1.55;;;27.90;43.40;;;;;;5053493;28;20198;-75
2022/08/23 11:32:48;;;;;;;1.60;1.50;;;27.90;43.40;;;;;;5048520;28;20191;-75
2022/08/23 11:35:37;;;;;;;2.22;1.92;;;27.80;43.40;;;;;;5053188;28;20281;-76
2022/08/23 11:38:05;;;;;;;2.00;1.80;;;27.90;43.60;;;;;;5053738;28;20194;-75
2022/08/23 11:40:55;;;;;;;2.00;1.80;;;27.80;43.50;;;;;;5052844;28;20221;-74
2022/08/23 11:43:28;;;;;;;1.70;1.60;;;27.80;43.60;;;;;;5053019;28;20285;-76
2022/08/23 11:46:13;;;;;;;1.70;1.60;;;27.80;43.60;;;;;;5036124;28;20220;-75
2022/08/23 11:48:42;;;;;;;1.70;1.60;;;27.90;43.70;;;;;;5035998;28;20207;-76
2022/08/23 11:51:21;;;;;;;1.67;1.58;;;27.80;43.70;;;;;;5052467;28;20218;-74
2022/08/23 11:54:03;;;;;;;1.65;1.55;;;27.80;43.70;;;;;;5036730;28;20214;-74
2022/08/23 11:56:38;;;;;;;1.70;1.60;;;27.80;43.70;;;;;;5052359;28;20187;-76
2022/08/23 11:59:28;;;;;;;1.52;1.42;;;27.80;43.70;;;;;;5055785;28;20675;-76
2022/08/23 12:01:55;;;;;;;1.65;1.55;;;27.80;43.70;;;;;;5040305;28;20287;-76
2022/08/23 12:04:46;;;;;;;2.00;1.80;;;27.90;43.70;;;;;;5057540;28;20229;-74
2022/08/23 12:07:13;;;;;;;1.83;1.73;;;27.80;43.70;;;;;;5057473;28;20242;-74
2022/08/23 12:09:54;;;;;;;2.83;1.77;;;27.80;43.80;;;;;;5056626;28;20206;-76
2022/08/23 12:12:29;;;;;;;1.80;1.70;;;27.80;43.80;;;;;;5040119;28;20182;-75
2022/08/23 12:14:57;;;;;;;1.90;1.80;;;27.80;43.90;;;;;;5056902;28;20198;-75
2022/08/23 12:18:02;;;;;;;1.85;1.70;;;27.80;43.90;;;;;;5023622;28;20664;-75
2022/08/23 12:20:31;;;;;;;1.70;1.60;;;27.80;44.00;;;;;;5056354;28;20225;-75
2022/08/23 12:23:07;;;;;;;1.58;1.48;;;27.80;44.60;;;;;;5056583;28;20223;-76
2022/08/23 12:25:34;;;;;;;1.60;1.50;;;27.80;44.00;;;;;;5056562;28;20191;-75
2022/08/23 12:28:07;;;;;;;1.60;1.50;;;27.80;44.10;;;;;;5056453;28;20210;-74
2022/08/23 12:30:36;;;;;;;1.70;1.60;;;27.80;44.10;;;;;;5040584;28;20219;-76
2022/08/23 12:33:05;;;;;;;1.60;1.50;;;27.80;44.20;;;;;;5056463;28;20197;-76
2022/08/23 12:35:38;;;;;;;1.88;1.77;;;27.70;44.10;;;;;;5023640;28;20198;-77
2022/08/23 12:38:08;;;;;;;1.60;1.50;;;27.70;44.80;;;;;;5056340;28;20199;-75
2022/08/23 12:40:36;;;;;;;1.85;1.60;;;27.70;44.30;;;;;;5056026;28;20231;-75
2022/08/23 12:43:06;;;;;;;1.70;1.60;;;27.70;44.30;;;;;;5055661;28;20202;-77
2022/08/23 12:45:38;;;;;;;1.70;1.60;;;27.70;44.40;;;;;;5039234;28;20222;-75
2022/08/23 12:48:07;;;;;;;1.70;1.60;;;27.70;44.40;;;;;;5055743;28;20215;-75
2022/08/23 12:50:36;;;;;;;1.80;1.50;;;27.70;44.50;;;;;;5055745;28;20219;-77
2022/08/23 12:53:05;;;;;;;1.70;1.60;;;27.60;44.60;;;;;;5039368;28;20245;-76
2022/08/23 12:55:34;;;;;;;1.50;1.40;;;27.60;44.60;;;;;;5055837;28;20218;-75
2022/08/23 12:58:01;;;;;;;1.70;1.60;;;27.60;44.60;;;;;;5056403;28;20203;-75
2022/08/23 13:00:30;;;;;;;1.88;1.70;;;27.60;44.60;;;;;;5055696;28;20222;-75
2022/08/23 13:02:59;;;;;;;1.70;1.60;;;27.60;44.60;;;;;;5055760;28;20203;-76
2022/08/23 13:05:37;;;;;;;1.70;1.60;;;27.50;44.60;;;;;;5055628;28;20203;-74
2022/08/23 13:08:07;;;;;;;1.63;1.52;;;27.60;44.80;;;;;;5055041;28;20222;-75
2022/08/23 13:10:34;;;;;;;1.75;1.65;;;27.60;44.80;;;;;;5056425;28;20222;-76
2022/08/23 13:13:01;;;;;;;1.60;1.50;;;27.50;44.70;;;;;;5038845;28;20199;-74
2022/08/23 13:15:50;;;;;;;1.60;1.50;;;27.50;44.70;;;;;;5022355;28;20198;-74
2022/08/23 13:18:28;;;;;;;1.67;1.58;;;27.50;44.90;;;;;;5038374;28;20641;-74
2022/08/23 13:21:20;;;;;;;1.50;1.40;;;27.50;44.90;;;;;;5038799;28;20284;-77
2022/08/23 13:23:47;;;;;;;1.50;1.40;;;27.50;44.90;;;;;;5038351;28;20210;-76
2022/08/23 13:26:27;;;;;;;1.50;1.40;;;27.50;44.90;;;;;;5038540;28;20221;-76
2022/08/23 13:29:02;;;;;;;1.73;1.60;;;27.50;45.00;;;;;;5039010;28;20719;-76